Fort Robinson, Nebraska
Current Conditions -  °F | °C
As of 5:53 AM on Tuesday 21 Oct 2014 (Local Time) from KCDR Reporting Station
Clear Clear  
Wind Chill: 45°   Ceiling: Unl
Heat Index: 48°   Visibility: 10mi
Dew Point: 41°   Wind: 6mph
Humidity: 77%   Direction: 190°S
Pressure: 29.9"   Gusts: NA
Location:  42.7426°N, 103.391°W
Report Text: KCDR 211153Z AUTO 19005KT 10SM CLR 09/05 A2990 RMK AO2 SLP117 60000 T00890050 10183 20078 58001
Loading
Personal Weather Stations






























Interactive Weather Map
Tropical Storm Tracking
New forecast layout! Learn more

10-Day Weather Forecast

Advertisements
Track Severe Weather on mobile